Time;durP1;ratioP1;P1;durP2;ratioP2;P2;SDS_P1;SDS_P2;PMS_P1;PMS_P2;Temp;Humidity;BMP_temperature;BMP_pressure;BME280_temperature;BME280_humidity;BME280_pressure;Samples;Min_cycle;Max_cycle;Signal;HPM_P1;HPM_P2
2022/03/21 00:03:18;;;;;;;22.40;14.67;;;;;;;;;;10322899;28;20408;-70
2022/03/21 00:08:22;;;;;;;19.48;12.98;;;;;;;;;;10322821;28;20635;-71
2022/03/21 00:13:23;;;;;;;25.88;14.35;;;;;;;;;;10322423;28;20085;-71
2022/03/21 00:18:25;;;;;;;24.50;13.95;;;;;;;;;;10324034;28;20030;-75
2022/03/21 00:23:26;;;;;;;26.38;15.48;;;;;;;;;;10322535;28;20022;-73
2022/03/21 00:28:26;;;;;;;23.50;14.35;;;;;;;;;;10322818;28;20392;-74
2022/03/21 00:33:26;;;;;;;23.63;14.00;;;;;;;;;;10323072;28;20480;-74
2022/03/21 00:38:27;;;;;;;27.20;15.03;;;;;;;;;;10325293;28;20035;-71
2022/03/21 00:43:27;;;;;;;28.60;15.35;;;;;;;;;;10323955;28;20030;-75
2022/03/21 00:48:28;;;;;;;28.23;16.05;;;;;;;;;;10329800;28;20033;-71
2022/03/21 00:53:29;;;;;;;23.20;14.65;;;;;;;;;;10329759;28;20023;-72
2022/03/21 00:58:30;;;;;;;29.25;16.27;;;;;;;;;;10328995;28;20409;-70
2022/03/21 01:03:30;;;;;;;26.92;17.42;;;;;;;;;;10328961;28;20113;-73
2022/03/21 01:08:30;;;;;;;31.40;17.23;;;;;;;;;;10328545;28;20022;-72
2022/03/21 01:13:31;;;;;;;43.13;19.20;;;;;;;;;;10328385;28;20026;-70
2022/03/21 01:18:31;;;;;;;30.23;18.35;;;;;;;;;;10329761;28;20022;-78
2022/03/21 01:23:32;;;;;;;27.50;17.77;;;;;;;;;;10328050;28;20030;-77
2022/03/21 01:28:32;;;;;;;35.10;17.88;;;;;;;;;;10327618;28;20022;-70
2022/03/21 01:33:35;;;;;;;30.58;16.70;;;;;;;;;;10327354;28;20046;-72
2022/03/21 01:38:35;;;;;;;25.75;14.40;;;;;;;;;;10327136;28;20030;-71
2022/03/21 01:43:58;;;;;;;24.42;13.27;;;;;;;;;;10327236;28;20025;-73
2022/03/21 01:48:59;;;;;;;25.38;14.45;;;;;;;;;;10327318;28;20023;-72
2022/03/21 01:59:21;;;;;;;26.58;14.02;;;;;;;;;;10328270;28;20026;-72
2022/03/21 02:04:21;;;;;;;31.00;15.40;;;;;;;;;;10326924;28;20033;-75
2022/03/21 02:09:22;;;;;;;30.37;18.10;;;;;;;;;;10326685;28;20504;-71
2022/03/21 02:14:22;;;;;;;28.60;18.20;;;;;;;;;;10326480;28;20022;-75
2022/03/21 02:19:22;;;;;;;24.50;17.55;;;;;;;;;;10325915;28;20034;-72
2022/03/21 02:24:41;;;;;;;26.30;16.63;;;;;;;;;;10327254;28;20405;-71
2022/03/21 02:29:42;;;;;;;31.75;17.63;;;;;;;;;;10328512;28;20016;-74
2022/03/21 02:34:45;;;;;;;29.25;17.73;;;;;;;;;;10325226;28;20038;-74
2022/03/21 02:39:45;;;;;;;25.42;16.05;;;;;;;;;;10325349;28;20026;-70
2022/03/21 02:44:45;;;;;;;30.85;17.05;;;;;;;;;;10326520;28;20029;-72
2022/03/21 02:49:46;;;;;;;27.98;16.35;;;;;;;;;;10325207;28;20023;-72
2022/03/21 02:54:46;;;;;;;24.88;19.83;;;;;;;;;;10324592;28;20022;-77
2022/03/21 02:59:47;;;;;;;29.13;18.52;;;;;;;;;;10324271;28;20072;-71
2022/03/21 03:04:47;;;;;;;26.30;19.33;;;;;;;;;;10324370;28;20019;-70
2022/03/21 03:09:47;;;;;;;28.05;23.05;;;;;;;;;;10325246;28;20815;-71
2022/03/21 03:14:47;;;;;;;25.40;15.98;;;;;;;;;;10325500;28;20030;-77
2022/03/21 03:19:48;;;;;;;22.80;16.53;;;;;;;;;;10323605;28;20080;-71
2022/03/21 03:24:49;;;;;;;27.90;23.60;;;;;;;;;;10323523;28;20266;-76
2022/03/21 03:29:49;;;;;;;27.65;18.15;;;;;;;;;;10323564;28;20041;-73
2022/03/21 03:34:49;;;;;;;22.80;16.67;;;;;;;;;;10323565;28;20416;-77
2022/03/21 03:39:50;;;;;;;22.52;15.95;;;;;;;;;;10322710;28;20025;-72
2022/03/21 03:44:50;;;;;;;28.83;18.77;;;;;;;;;;10307172;28;20549;-70
2022/03/21 03:49:51;;;;;;;28.13;18.67;;;;;;;;;;10322828;28;20026;-70
2022/03/21 03:54:51;;;;;;;36.70;18.83;;;;;;;;;;10322659;28;20050;-72
2022/03/21 03:59:51;;;;;;;31.40;16.60;;;;;;;;;;10324125;28;20030;-70
2022/03/21 04:04:52;;;;;;;24.60;15.77;;;;;;;;;;10324103;28;20019;-76
2022/03/21 04:09:52;;;;;;;28.08;19.45;;;;;;;;;;10323289;28;20559;-73
2022/03/21 04:14:52;;;;;;;28.08;19.33;;;;;;;;;;10323524;28;20512;-71
2022/03/21 04:19:53;;;;;;;24.90;18.88;;;;;;;;;;10324744;28;20030;-70
2022/03/21 04:24:53;;;;;;;32.08;18.17;;;;;;;;;;10330260;28;20018;-70
2022/03/21 04:29:53;;;;;;;23.25;16.38;;;;;;;;;;10329443;28;20018;-72
2022/03/21 04:34:53;;;;;;;29.27;17.85;;;;;;;;;;10330011;28;20109;-72
2022/03/21 04:39:54;;;;;;;27.70;15.07;;;;;;;;;;10329167;28;20022;-73
2022/03/21 04:44:54;;;;;;;31.15;20.73;;;;;;;;;;10324245;28;20019;-72
2022/03/21 04:49:55;;;;;;;24.23;18.47;;;;;;;;;;10328631;28;20034;-71
2022/03/21 04:54:55;;;;;;;34.05;18.05;;;;;;;;;;10304410;28;20031;-71
2022/03/21 04:59:56;;;;;;;38.90;19.20;;;;;;;;;;10304730;28;20034;-74
2022/03/21 05:04:56;;;;;;;25.73;16.85;;;;;;;;;;10289572;28;20390;-72
2022/03/21 05:09:56;;;;;;;22.87;13.03;;;;;;;;;;10294241;28;20063;-72
2022/03/21 05:14:56;;;;;;;18.83;11.10;;;;;;;;;;10289344;28;20496;-72
2022/03/21 05:19:57;;;;;;;27.05;13.82;;;;;;;;;;10315315;28;20031;-72
2022/03/21 05:35:55;;;;;;;23.77;13.80;;;;;;;;;;10328202;28;20034;-73
2022/03/21 05:41:03;;;;;;;20.08;12.18;;;;;;;;;;10326735;28;20035;-73
2022/03/21 05:46:04;;;;;;;26.95;11.35;;;;;;;;;;10327782;28;20042;-71
2022/03/21 05:51:05;;;;;;;21.65;12.40;;;;;;;;;;10327791;28;20061;-72
2022/03/21 05:56:05;;;;;;;24.77;10.95;;;;;;;;;;10325174;28;20023;-74
2022/03/21 06:01:06;;;;;;;18.27;10.43;;;;;;;;;;10325978;28;20094;-73
2022/03/21 06:06:06;;;;;;;30.52;10.98;;;;;;;;;;10325416;28;20273;-76
2022/03/21 06:11:08;;;;;;;18.13;9.63;;;;;;;;;;10325674;28;20030;-74
2022/03/21 06:16:08;;;;;;;18.77;10.02;;;;;;;;;;10327807;28;20314;-77
2022/03/21 06:21:09;;;;;;;18.90;10.27;;;;;;;;;;10326137;28;20485;-74
2022/03/21 06:26:09;;;;;;;19.13;9.40;;;;;;;;;;10324453;28;20650;-72
2022/03/21 06:31:10;;;;;;;14.98;8.57;;;;;;;;;;10324281;28;20058;-72
2022/03/21 06:36:11;;;;;;;18.73;9.10;;;;;;;;;;10324285;28;20038;-72
2022/03/21 06:41:14;;;;;;;15.50;9.02;;;;;;;;;;10337005;28;20116;-72
2022/03/21 06:46:14;;;;;;;17.02;9.57;;;;;;;;;;10323004;28;20085;-71
2022/03/21 06:51:16;;;;;;;20.70;9.63;;;;;;;;;;10325054;28;20137;-73
2022/03/21 06:56:16;;;;;;;14.90;8.15;;;;;;;;;;10323763;28;20026;-73
2022/03/21 07:01:17;;;;;;;17.73;8.60;;;;;;;;;;10323635;28;20034;-77
2022/03/21 07:06:19;;;;;;;17.93;8.90;;;;;;;;;;10323590;28;20089;-73
2022/03/21 07:11:21;;;;;;;18.80;7.93;;;;;;;;;;10324998;28;20061;-73
2022/03/21 07:16:21;;;;;;;18.17;9.18;;;;;;;;;;10323780;28;20034;-76
2022/03/21 07:21:22;;;;;;;16.65;8.15;;;;;;;;;;10323256;28;20029;-76
2022/03/21 07:26:22;;;;;;;17.33;9.30;;;;;;;;;;10323195;28;20030;-75
2022/03/21 07:31:23;;;;;;;16.25;8.18;;;;;;;;;;10322964;28;20069;-77
2022/03/21 07:36:23;;;;;;;15.55;8.30;;;;;;;;;;10323091;28;20553;-72
2022/03/21 07:41:27;;;;;;;15.45;9.05;;;;;;;;;;10323080;28;20022;-73
2022/03/21 07:51:46;;;;;;;16.33;9.95;;;;;;;;;;10324645;28;20034;-78
2022/03/21 07:56:47;;;;;;;22.10;9.53;;;;;;;;;;10327853;28;20026;-77
2022/03/21 08:01:47;;;;;;;21.33;9.88;;;;;;;;;;10330863;28;20034;-74
2022/03/21 08:06:47;;;;;;;20.83;10.63;;;;;;;;;;10330616;28;20096;-79
2022/03/21 08:11:48;;;;;;;23.83;10.17;;;;;;;;;;10331166;28;20029;-75
2022/03/21 08:16:49;;;;;;;24.38;10.40;;;;;;;;;;10331661;28;20037;-75
2022/03/21 08:21:49;;;;;;;20.52;9.45;;;;;;;;;;10329989;28;20120;-74
2022/03/21 08:26:50;;;;;;;20.10;9.55;;;;;;;;;;10329632;28;20033;-75
2022/03/21 08:31:50;;;;;;;17.95;10.00;;;;;;;;;;10329600;28;20047;-73
2022/03/21 08:36:50;;;;;;;16.52;9.88;;;;;;;;;;10313677;28;20109;-76
2022/03/21 08:41:52;;;;;;;22.42;11.88;;;;;;;;;;10328900;28;20484;-73
2022/03/21 08:46:52;;;;;;;22.67;10.63;;;;;;;;;;10328998;28;20061;-72
2022/03/21 08:51:53;;;;;;;32.85;13.18;;;;;;;;;;10328965;28;20503;-74
2022/03/21 08:56:53;;;;;;;20.17;11.60;;;;;;;;;;10328712;28;20084;-73
2022/03/21 09:01:54;;;;;;;27.30;12.75;;;;;;;;;;10329795;28;20420;-73
2022/03/21 09:06:54;;;;;;;20.20;11.13;;;;;;;;;;10328040;28;20022;-80
2022/03/21 09:11:54;;;;;;;22.20;11.33;;;;;;;;;;10328269;28;20574;-74
2022/03/21 09:16:56;;;;;;;22.33;12.07;;;;;;;;;;10327625;28;20265;-72
2022/03/21 09:21:57;;;;;;;19.17;10.40;;;;;;;;;;10328008;28;20475;-74
2022/03/21 09:26:58;;;;;;;22.20;9.68;;;;;;;;;;10329697;28;20037;-74
2022/03/21 09:31:58;;;;;;;19.57;9.63;;;;;;;;;;10327087;28;20504;-72
2022/03/21 09:37:00;;;;;;;18.03;9.73;;;;;;;;;;10327690;28;20034;-77
2022/03/21 09:42:01;;;;;;;16.25;9.15;;;;;;;;;;10328481;28;20741;-73
2022/03/21 09:48:08;;;;;;;21.98;10.45;;;;;;;;;;10326592;28;20106;-75
2022/03/21 09:52:24;;;;;;;18.83;8.98;;;;;;;;;;10327836;28;20103;-73
2022/03/21 09:57:26;;;;;;;25.47;9.17;;;;;;;;;;10326468;28;20448;-73
2022/03/21 10:02:26;;;;;;;15.50;7.00;;;;;;;;;;10326158;28;20034;-72
2022/03/21 10:07:27;;;;;;;12.63;7.40;;;;;;;;;;10325913;28;20046;-72
2022/03/21 10:12:27;;;;;;;17.17;7.53;;;;;;;;;;10309612;28;20042;-73
2022/03/21 10:17:28;;;;;;;16.25;7.55;;;;;;;;;;10325645;28;20450;-73
2022/03/21 10:22:32;;;;;;;12.68;7.57;;;;;;;;;;10324963;28;20477;-71
2022/03/21 10:27:33;;;;;;;12.38;6.88;;;;;;;;;;10325647;28;20483;-73
2022/03/21 10:32:36;;;;;;;19.20;8.38;;;;;;;;;;10325034;28;20054;-73
2022/03/21 10:37:40;;;;;;;19.17;7.70;;;;;;;;;;10330146;28;20038;-74
2022/03/21 10:42:57;;;;;;;14.13;7.10;;;;;;;;;;10324905;28;20027;-71
2022/03/21 10:47:58;;;;;;;10.68;7.38;;;;;;;;;;10324294;28;20026;-73
2022/03/21 10:53:04;;;;;;;13.73;6.85;;;;;;;;;;10324168;28;20464;-77
2022/03/21 10:58:05;;;;;;;17.08;7.72;;;;;;;;;;10323863;28;20022;-80
2022/03/21 11:03:16;;;;;;;14.30;7.45;;;;;;;;;;10325250;28;20034;-74
2022/03/21 11:08:17;;;;;;;15.60;6.97;;;;;;;;;;10325222;28;20526;-77
2022/03/21 11:13:19;;;;;;;14.50;7.60;;;;;;;;;;10324884;28;20050;-74
2022/03/21 11:18:20;;;;;;;12.63;7.25;;;;;;;;;;10323181;28;20018;-73
2022/03/21 11:23:20;;;;;;;14.60;7.53;;;;;;;;;;10323456;28;20382;-77
2022/03/21 11:28:38;;;;;;;14.60;8.18;;;;;;;;;;10323071;28;20026;-72
2022/03/21 11:33:57;;;;;;;15.30;6.97;;;;;;;;;;10322666;28;20054;-74
2022/03/21 11:39:00;;;;;;;13.60;7.75;;;;;;;;;;10322596;28;20520;-72
2022/03/21 11:44:03;;;;;;;15.05;8.65;;;;;;;;;;10321837;28;20029;-76
2022/03/21 11:49:25;;;;;;;16.48;8.75;;;;;;;;;;10324292;28;20054;-74
2022/03/21 11:54:32;;;;;;;19.10;8.35;;;;;;;;;;10323383;28;20033;-72
2022/03/21 11:59:33;;;;;;;17.45;9.23;;;;;;;;;;10322586;28;20113;-75
2022/03/21 12:04:33;;;;;;;15.90;9.00;;;;;;;;;;10322043;28;20503;-74
2022/03/21 12:09:44;;;;;;;18.25;9.52;;;;;;;;;;10322122;28;20480;-74
2022/03/21 12:14:45;;;;;;;19.48;8.63;;;;;;;;;;10322192;28;20101;-75
2022/03/21 12:19:45;;;;;;;23.45;11.27;;;;;;;;;;10321788;28;20026;-72
2022/03/21 12:24:49;;;;;;;18.75;9.25;;;;;;;;;;10322277;28;20112;-72
2022/03/21 12:29:49;;;;;;;17.95;8.77;;;;;;;;;;10322272;28;20065;-73
2022/03/21 12:34:51;;;;;;;13.25;8.00;;;;;;;;;;10321752;28;20487;-73
2022/03/21 12:39:53;;;;;;;14.10;7.63;;;;;;;;;;10321461;28;20037;-74
2022/03/21 12:44:54;;;;;;;16.08;8.90;;;;;;;;;;10328180;28;20018;-73
2022/03/21 12:49:55;;;;;;;17.08;8.73;;;;;;;;;;10329174;28;20022;-72
2022/03/21 12:54:56;;;;;;;14.52;7.47;;;;;;;;;;10329540;28;20023;-71
2022/03/21 13:00:16;;;;;;;17.23;7.95;;;;;;;;;;10328306;28;20026;-71
2022/03/21 13:10:36;;;;;;;17.08;7.85;;;;;;;;;;10329201;28;20019;-73
2022/03/21 13:15:36;;;;;;;18.55;8.73;;;;;;;;;;10323612;28;20413;-72
2022/03/21 13:20:45;;;;;;;13.82;8.77;;;;;;;;;;10298984;28;20042;-72
2022/03/21 13:25:45;;;;;;;18.17;9.38;;;;;;;;;;10327442;28;20469;-70
2022/03/21 13:30:55;;;;;;;20.38;9.63;;;;;;;;;;10327196;28;20104;-74
2022/03/21 13:35:58;;;;;;;19.05;9.80;;;;;;;;;;10326470;28;20042;-71
2022/03/21 13:40:59;;;;;;;16.88;8.82;;;;;;;;;;10326302;28;20030;-70
2022/03/21 13:45:59;;;;;;;18.30;9.55;;;;;;;;;;10326584;28;20022;-71
2022/03/21 13:51:17;;;;;;;23.13;9.10;;;;;;;;;;10326643;28;20019;-75
2022/03/21 13:56:27;;;;;;;19.30;9.32;;;;;;;;;;10307131;28;20129;-70
2022/03/21 14:01:29;;;;;;;21.08;9.40;;;;;;;;;;10287254;28;20508;-77
2022/03/21 14:06:29;;;;;;;15.30;8.20;;;;;;;;;;10286037;28;20110;-71
2022/03/21 14:11:30;;;;;;;16.17;8.80;;;;;;;;;;10299014;28;20022;-72
2022/03/21 14:16:32;;;;;;;17.00;8.82;;;;;;;;;;10325078;28;20026;-74
2022/03/21 14:21:32;;;;;;;17.35;9.57;;;;;;;;;;10325361;28;20030;-71
2022/03/21 14:26:38;;;;;;;21.95;9.32;;;;;;;;;;10325324;28;20022;-73
2022/03/21 14:31:38;;;;;;;16.13;8.80;;;;;;;;;;10324326;28;20052;-72
2022/03/21 14:36:39;;;;;;;23.77;9.85;;;;;;;;;;10326113;28;20034;-72
2022/03/21 14:41:39;;;;;;;20.38;9.25;;;;;;;;;;10323883;28;20022;-70
2022/03/21 14:46:40;;;;;;;18.85;9.38;;;;;;;;;;10325769;28;20026;-72
2022/03/21 14:51:40;;;;;;;18.77;9.47;;;;;;;;;;10324045;28;20030;-70
2022/03/21 14:56:40;;;;;;;17.70;9.77;;;;;;;;;;10325079;28;20026;-76
2022/03/21 15:01:42;;;;;;;15.13;9.40;;;;;;;;;;10323808;28;20169;-72
2022/03/21 15:06:42;;;;;;;18.55;9.65;;;;;;;;;;10323141;28;20022;-72
2022/03/21 15:11:44;;;;;;;20.42;10.02;;;;;;;;;;10323137;28;20069;-72
2022/03/21 15:16:45;;;;;;;20.42;9.50;;;;;;;;;;10323145;28;20033;-73
2022/03/21 15:21:47;;;;;;;21.75;10.43;;;;;;;;;;10322880;28;20481;-71
2022/03/21 15:26:47;;;;;;;20.08;10.32;;;;;;;;;;10322497;28;20038;-72
2022/03/21 15:31:47;;;;;;;23.70;11.70;;;;;;;;;;10323568;28;20076;-72
2022/03/21 15:42:07;;;;;;;22.05;11.38;;;;;;;;;;10323014;28;20101;-71
2022/03/21 15:47:07;;;;;;;21.50;11.20;;;;;;;;;;10322144;28;20026;-72
2022/03/21 15:52:08;;;;;;;22.95;11.68;;;;;;;;;;10322171;28;20026;-73
2022/03/21 15:57:08;;;;;;;21.20;11.15;;;;;;;;;;10321707;28;20030;-71
2022/03/21 16:02:08;;;;;;;22.83;12.32;;;;;;;;;;10280355;28;20029;-71
2022/03/21 16:07:10;;;;;;;20.10;10.53;;;;;;;;;;10296258;28;20060;-71
2022/03/21 16:12:10;;;;;;;16.88;10.23;;;;;;;;;;10321809;28;20558;-75
2022/03/21 16:17:11;;;;;;;26.35;11.27;;;;;;;;;;10326187;28;20022;-73
2022/03/21 16:22:12;;;;;;;19.35;10.45;;;;;;;;;;10329462;28;20022;-71
2022/03/21 16:27:12;;;;;;;17.03;9.03;;;;;;;;;;10318148;28;20022;-72
2022/03/21 16:32:14;;;;;;;20.77;10.15;;;;;;;;;;10288806;28;20454;-70
2022/03/21 16:37:15;;;;;;;21.17;11.25;;;;;;;;;;10289287;28;20604;-71
2022/03/21 16:42:18;;;;;;;22.02;11.10;;;;;;;;;;10307488;28;20030;-74
2022/03/21 16:47:19;;;;;;;21.42;10.75;;;;;;;;;;10328667;28;20508;-71
2022/03/21 16:52:19;;;;;;;18.08;9.10;;;;;;;;;;10328709;28;20109;-71
2022/03/21 16:57:19;;;;;;;22.73;11.03;;;;;;;;;;10329146;28;20448;-72
2022/03/21 17:02:21;;;;;;;23.15;11.00;;;;;;;;;;10328619;28;20053;-70
2022/03/21 17:07:23;;;;;;;24.10;11.40;;;;;;;;;;10329099;28;20033;-70
2022/03/21 17:12:23;;;;;;;22.30;10.38;;;;;;;;;;10328041;28;20041;-71
2022/03/21 17:17:23;;;;;;;23.83;10.93;;;;;;;;;;10327212;28;20439;-72
2022/03/21 17:27:43;;;;;;;24.75;11.85;;;;;;;;;;10328780;28;20042;-76
2022/03/21 17:32:43;;;;;;;26.35;12.02;;;;;;;;;;10291403;28;20161;-73
2022/03/21 17:37:44;;;;;;;34.65;11.35;;;;;;;;;;10286688;28;20512;-72
2022/03/21 17:42:44;;;;;;;27.23;12.15;;;;;;;;;;10298936;28;20485;-79
2022/03/21 17:47:44;;;;;;;26.75;13.93;;;;;;;;;;10326854;28;20419;-75
2022/03/21 17:52:46;;;;;;;20.73;11.27;;;;;;;;;;10324449;28;20416;-74
2022/03/21 17:57:46;;;;;;;29.95;13.60;;;;;;;;;;10286531;28;20262;-75
2022/03/21 18:02:47;;;;;;;22.80;12.85;;;;;;;;;;10297664;28;20030;-75
2022/03/21 18:07:47;;;;;;;33.13;13.57;;;;;;;;;;10326173;28;20029;-76
2022/03/21 18:12:48;;;;;;;23.77;12.27;;;;;;;;;;10327544;28;20026;-75
2022/03/21 18:17:48;;;;;;;27.57;14.13;;;;;;;;;;10324725;28;20564;-76
2022/03/21 18:22:48;;;;;;;34.27;15.13;;;;;;;;;;10325228;28;20033;-73
2022/03/21 18:27:49;;;;;;;37.07;18.00;;;;;;;;;;10317922;28;20401;-74
2022/03/21 18:32:49;;;;;;;38.45;18.98;;;;;;;;;;10304204;28;20050;-71
2022/03/21 18:37:49;;;;;;;42.90;20.50;;;;;;;;;;10325151;28;20054;-71
2022/03/21 18:42:50;;;;;;;46.28;19.10;;;;;;;;;;10317139;28;20056;-72
2022/03/21 18:47:50;;;;;;;41.55;20.13;;;;;;;;;;10321282;28;20022;-76
2022/03/21 18:52:52;;;;;;;33.20;18.17;;;;;;;;;;10320742;28;20049;-72
2022/03/21 18:57:55;;;;;;;37.95;19.45;;;;;;;;;;10320832;28;20050;-72
2022/03/21 19:02:55;;;;;;;40.30;20.35;;;;;;;;;;10319344;28;20109;-72
2022/03/21 19:07:56;;;;;;;46.60;21.00;;;;;;;;;;10320365;28;20022;-75
2022/03/21 19:12:56;;;;;;;36.33;20.50;;;;;;;;;;10307243;28;20034;-73
2022/03/21 19:17:56;;;;;;;47.90;21.37;;;;;;;;;;10281582;28;20019;-75
2022/03/21 19:22:57;;;;;;;41.87;20.90;;;;;;;;;;10283053;28;20278;-77
2022/03/21 19:27:57;;;;;;;42.80;21.63;;;;;;;;;;10312883;28;20049;-70
2022/03/21 19:32:57;;;;;;;43.42;21.45;;;;;;;;;;10320806;28;20054;-75
2022/03/21 19:37:58;;;;;;;45.08;21.58;;;;;;;;;;10321733;28;20034;-71
2022/03/21 19:43:03;;;;;;;43.70;19.87;;;;;;;;;;10288715;28;20026;-71
2022/03/21 19:48:05;;;;;;;49.28;21.60;;;;;;;;;;10281461;28;20019;-71
2022/03/21 19:53:05;;;;;;;47.85;22.33;;;;;;;;;;10304499;28;20024;-72
2022/03/21 19:58:06;;;;;;;47.97;20.97;;;;;;;;;;10322369;28;20499;-71
2022/03/21 20:03:06;;;;;;;51.20;21.27;;;;;;;;;;10321121;28;20105;-73
2022/03/21 20:08:07;;;;;;;43.42;20.00;;;;;;;;;;10321429;28;20105;-71
2022/03/21 20:13:08;;;;;;;50.33;23.75;;;;;;;;;;10320629;28;20480;-71
2022/03/21 20:18:10;;;;;;;47.42;22.40;;;;;;;;;;10320982;28;20023;-79
2022/03/21 20:23:10;;;;;;;60.60;22.05;;;;;;;;;;10321497;28;20025;-73
2022/03/21 20:28:11;;;;;;;51.00;21.93;;;;;;;;;;10313739;28;20023;-71
2022/03/21 20:33:11;;;;;;;59.63;24.52;;;;;;;;;;10281567;28;20298;-74
2022/03/21 20:38:14;;;;;;;44.80;22.00;;;;;;;;;;10319685;28;20026;-75
2022/03/21 20:43:14;;;;;;;49.00;22.50;;;;;;;;;;10282872;28;20023;-76
2022/03/21 20:48:15;;;;;;;43.75;21.40;;;;;;;;;;10297183;28;20500;-76
2022/03/21 20:53:17;;;;;;;53.03;22.55;;;;;;;;;;10311549;28;20676;-75
2022/03/21 20:58:17;;;;;;;45.15;21.70;;;;;;;;;;10321218;28;20452;-72
2022/03/21 21:03:18;;;;;;;48.92;22.95;;;;;;;;;;10322512;28;20019;-76
2022/03/21 21:08:18;;;;;;;52.83;23.95;;;;;;;;;;10327960;28;20109;-77
2022/03/21 21:13:22;;;;;;;64.63;22.85;;;;;;;;;;10325841;28;20031;-74
2022/03/21 21:18:23;;;;;;;47.75;22.23;;;;;;;;;;10324731;28;20049;-75
2022/03/21 21:23:26;;;;;;;48.97;22.83;;;;;;;;;;10324219;28;20023;-74
2022/03/21 21:28:27;;;;;;;50.55;21.25;;;;;;;;;;10326776;28;20025;-72
2022/03/21 21:33:28;;;;;;;56.75;21.50;;;;;;;;;;10326077;28;20107;-77
2022/03/21 21:38:31;;;;;;;56.70;22.38;;;;;;;;;;10326414;28;20030;-70
2022/03/21 21:43:32;;;;;;;52.50;23.30;;;;;;;;;;10327055;28;20386;-74
2022/03/21 21:48:32;;;;;;;43.85;20.65;;;;;;;;;;10326393;28;20018;-74
2022/03/21 21:53:33;;;;;;;41.63;19.13;;;;;;;;;;10302956;28;20023;-70
2022/03/21 21:58:33;;;;;;;41.65;21.50;;;;;;;;;;10302449;28;20027;-72
2022/03/21 22:03:34;;;;;;;40.08;20.92;;;;;;;;;;10286657;28;20093;-72
2022/03/21 22:08:35;;;;;;;49.15;20.70;;;;;;;;;;10285297;28;20030;-70
2022/03/21 22:13:35;;;;;;;44.85;18.10;;;;;;;;;;10285346;28;20149;-71
2022/03/21 22:18:36;;;;;;;38.55;20.08;;;;;;;;;;10314750;28;20076;-75
2022/03/21 22:23:36;;;;;;;34.03;18.47;;;;;;;;;;10324992;28;20026;-76
2022/03/21 22:28:36;;;;;;;38.72;17.95;;;;;;;;;;10324332;28;20803;-72
2022/03/21 22:33:37;;;;;;;41.08;17.48;;;;;;;;;;10323872;28;20136;-75
2022/03/21 22:38:38;;;;;;;39.70;17.98;;;;;;;;;;10320352;28;20042;-70
2022/03/21 22:48:57;;;;;;;51.15;21.70;;;;;;;;;;10286005;28;20019;-73
2022/03/21 22:53:57;;;;;;;47.05;20.85;;;;;;;;;;10283246;28;20026;-71
2022/03/21 22:58:57;;;;;;;35.33;19.35;;;;;;;;;;10294504;28;20038;-74
2022/03/21 23:03:58;;;;;;;37.90;17.58;;;;;;;;;;10323159;28;20496;-71
2022/03/21 23:08:58;;;;;;;47.53;17.73;;;;;;;;;;10323671;28;20138;-72
2022/03/21 23:13:58;;;;;;;34.70;16.65;;;;;;;;;;10322362;28;20022;-71
2022/03/21 23:18:58;;;;;;;39.03;18.10;;;;;;;;;;10282462;28;20464;-70
2022/03/21 23:23:59;;;;;;;42.43;18.23;;;;;;;;;;10298762;28;20520;-72
2022/03/21 23:28:59;;;;;;;32.83;18.23;;;;;;;;;;10284012;28;20019;-71
2022/03/21 23:34:00;;;;;;;39.38;17.58;;;;;;;;;;10283222;28;20051;-72
2022/03/21 23:39:03;;;;;;;41.65;19.42;;;;;;;;;;10328577;28;20039;-70
2022/03/21 23:44:03;;;;;;;43.95;22.30;;;;;;;;;;10323051;28;20032;-74
2022/03/21 23:49:03;;;;;;;45.50;22.20;;;;;;;;;;10324358;28;20030;-71
2022/03/21 23:54:03;;;;;;;41.05;21.95;;;;;;;;;;10296698;28;20275;-73
2022/03/21 23:59:04;;;;;;;46.53;20.58;;;;;;;;;;10283208;28;20022;-76
